GW0194 Weather Reports


Display with metric or nautical units.
time (UTC)temp
F
wind
direction
speed
MPH
gust
MPH
rain 1hr
in
rain 24hr
in
rain mn
in
humidity
%
barometer
mb
20230206170015 41 275 2.0 9.0 0.00 0.00 0.00 29 1009.7
20230206164514 41 340 2.0 11.0 0.00 0.00 0.00 29 1009.4
20230206163018 43 316 4.0 12.0 0.00 0.00 0.00 27 1008.7
20230206161513 42 178 2.0 5.0 0.00 0.00 0.00 28 1009.0
20230206160013 40 3 1.0 5.0 0.00 0.00 0.00 30 1009.0
20230206154513 39 237 1.0 9.0 0.00 0.00 0.00 31 1008.9
20230206153013 40 283 1.0 4.0 0.00 0.00 0.00 31 1008.8
20230206151514 38 207 0.0 1.0 0.00 0.00 0.00 42 1008.6
20230206150025 35 56 1.0 4.0 0.00 0.00 0.00 47 1008.1
20230206144513 33 143 0.0 1.0 0.00 0.00 0.00 52 1007.8
20230206143017 33 0 0.0 3.0 0.00 0.00 0.00 48 1007.7
20230206141516 32 87 0.0 1.0 0.00 0.00 0.00 53 1007.3
20230206140023 33 0 0.0 1.0 0.00 0.00 0.00 50 1007.2
20230206134519 32 0 0.0 1.0 0.00 0.00 0.00 54 1007.0
20230206133013 33 34 0.0 2.0 0.00 0.00 0.00 56 1006.8
20230206131516 34 0 0.0 1.0 0.00 0.00 0.00 57 1006.4
20230206130013 34 0 0.0 5.0 0.00 0.00 0.00 58 1006.1
20230206124514 35 90 3.0 5.0 0.00 0.00 0.00 58 1006.0
20230206123015 38 127 0.0 5.0 0.00 0.00 0.00 39 1005.7
20230206121514 39 229 0.0 4.0 0.00 0.00 0.00 39 1005.9
20230206120015 38 326 1.0 6.0 0.00 0.00 0.00 43 1005.6
20230206114523 38 275 0.0 3.0 0.00 0.00 0.00 43 1005.7
20230206113013 39 0 0.0 4.0 0.00 0.00 0.00 41 1005.6
20230206111510 40 160 1.0 6.0 0.00 0.00 0.00 42 1005.3
20230206110022 40 240 2.0 6.0 0.00 0.00 0.00 47 1005.1
20230206104513 42 224 1.0 5.0 0.00 0.00 0.00 45 1004.6
20230206103022 43 342 2.0 6.0 0.00 0.00 0.00 44 1004.5
20230206101511 43 258 1.0 9.0 0.00 0.00 0.00 44 1004.3
20230206100023 43 0 0.0 4.0 0.00 0.00 0.00 44 1004.1
20230206094512 43 0 0.0 3.0 0.00 0.00 0.00 44 1004.1
20230206093014 43 0 0.0 2.0 0.00 0.00 0.00 43 1004.1
20230206091518 43 0 0.0 10.0 0.00 0.00 0.00 44 1004.3
20230206090012 44 201 0.0 4.0 0.00 0.00 0.00 43 1004.4
20230206084517 44 185 2.0 12.0 0.00 0.00 0.00 43 1004.6
20230206083022 43 307 2.0 9.0 0.00 0.00 0.00 45 1004.7
20230206081513 43 316 2.0 8.0 0.00 0.00 0.00 47 1004.9
20230206080013 42 264 2.0 12.0 0.00 0.00 0.00 50 1005.2
20230206074518 42 243 2.0 9.0 0.00 0.00 0.00 50 1005.4
20230206073012 41 315 3.0 8.0 0.00 0.00 0.00 48 1005.7
20230206071513 40 326 1.0 7.0 0.00 0.00 0.00 49 1006.0
20230206070016 37 0 0.0 3.0 0.00 0.00 0.00 52 1006.3
20230206064511 32 187 0.0 2.0 0.00 0.00 0.00 55 1006.6
20230206063011 32 0 0.0 1.0 0.00 0.00 0.00 55 1006.8
20230206061517 30 127 0.0 1.0 0.00 0.00 0.00 61 1006.6
20230206060014 30 0 0.0 2.0 0.00 0.00 0.00 59 1006.6
20230206054519 30 230 0.0 1.0 0.00 0.00 0.00 65 1006.6
20230206053012 28 240 0.0 5.0 0.00 0.00 0.00 71 1006.7
20230206051510 27 268 0.0 1.0 0.00 0.00 0.00 77 1007.0
20230206050014 25 77 2.0 4.0 0.00 0.00 0.00 78 1007.1
20230206044513 25 0 0.0 1.0 0.00 0.00 0.00 81 1007.5
20230206043013 24 229 0.0 1.0 0.00 0.00 0.00 82 1007.7
20230206041515 24 0 0.0 2.0 0.00 0.00 0.00 81 1007.9
20230206040015 24 0 0.0 1.0 0.00 0.00 0.00 79 1007.8
20230206034512 25 0 0.0 1.0 0.00 0.00 0.00 80 1008.1
20230206033013 25 0 0.0 1.0 0.00 0.00 0.00 80 1008.2
20230206031514 24 0 0.0 1.0 0.00 0.00 0.00 80 1008.2
20230206030015 25 0 0.0 1.0 0.00 0.00 0.00 76 1008.5
20230206024512 24 0 0.0 1.0 0.00 0.00 0.00 78 1008.6
20230206023010 26 0 0.0 0.0 0.00 0.00 0.00 74 1008.9
20230206021514 27 0 0.0 1.0 0.00 0.00 0.00 75 1009.1
20230206020012 28 237 0.0 1.0 0.00 0.00 0.00 75 1009.1
20230206014533 28 100 1.0 2.0 0.00 0.00 0.00 68 1009.1
20230206013012 30 0 0.0 1.0 0.00 0.00 0.00 71 1009.2
20230206011512 29 0 0.0 1.0 0.00 0.00 0.00 69 1009.2
20230206010013 34 0 0.0 1.0 0.00 0.00 0.00 64 1008.9
20230206004517 34 0 0.0 2.0 0.00 0.00 0.00 64 1009.0
20230206003012 36 0 0.0 1.0 0.00 0.00 0.00 59 1008.7
20230206001512 36 75 0.0 3.0 0.00 0.00 0.00 59 1008.5
20230206000014 39 0 0.0 1.0 0.00 0.00 0.00 52 1008.6
20230205234516 40 0 0.0 4.0 0.00 0.00 0.00 50 1008.7
20230205233019 41 38 2.0 4.0 0.00 0.00 0.00 49 1009.0
20230205231515 41 25 0.0 4.0 0.00 0.00 0.00 47 1009.1
20230205230014 42 36 0.0 5.0 0.00 0.00 0.00 45 1009.3
20230205224514 42 21 2.0 5.0 0.00 0.00 0.00 46 1009.4
20230205223016 43 38 2.0 5.0 0.00 0.00 0.00 46 1009.8
20230205221513 42 23 2.0 8.0 0.00 0.00 0.00 44 1009.8
20230205220013 42 41 2.0 7.0 0.00 0.00 0.00 45 1010.1
20230205214512 42 56 2.0 4.0 0.00 0.00 0.00 46 1010.3
20230205213013 43 7 1.0 4.0 0.00 0.00 0.00 46 1010.7
20230205211513 43 72 3.0 6.0 0.00 0.00 0.00 45 1010.5
20230205210011 43 37 3.0 9.0 0.00 0.00 0.00 47 1011.1
20230205204511 44 20 2.0 11.0 0.00 0.00 0.00 46 1011.5
20230205203010 45 344 2.0 6.0 0.00 0.00 0.00 43 1011.8
20230205201514 45 22 3.0 7.0 0.00 0.00 0.00 42 1012.1
20230205200014 45 25 1.0 7.0 0.00 0.00 0.00 41 1012.6
20230205194518 45 66 3.0 9.0 0.00 0.00 0.00 40 1013.1
20230205193020 44 24 3.0 11.0 0.00 0.00 0.00 39 1013.4
20230205191514 44 80 5.0 9.0 0.00 0.00 0.00 46 1013.8
20230205190014 45 45 4.0 8.0 0.00 0.00 0.00 45 1014.3
20230205184530 45 34 1.0 7.0 0.00 0.00 0.00 41 1014.7
20230205183016 45 34 1.0 6.0 0.00 0.00 0.00 40 1015.3
20230205181515 43 60 5.0 9.0 0.00 0.00 0.00 41 1015.6
20230205180014 42 297 1.0 7.0 0.00 0.00 0.00 46 1016.1
20230205174516 41 70 2.0 7.0 0.00 0.00 0.00 46 1016.0
20230205173013 41 75 2.0 4.0 0.00 0.00 0.00 44 1016.3
20230205171524 40 0 1.0 4.0 0.00 0.00 0.00 47 1016.4